sensor_id;sensor_type;location;lat;lon;timestamp;P1;durP1;ratioP1;P2;durP2;ratioP2
16262;SDS011;8239;48.594;8.598;2023-05-10T00:02:21;0.30;;;0.30;;
16262;SDS011;8239;48.594;8.598;2023-05-10T00:04:48;0.30;;;0.20;;
16262;SDS011;8239;48.594;8.598;2023-05-10T00:07:15;0.30;;;0.10;;
16262;SDS011;8239;48.594;8.598;2023-05-10T00:09:42;0.20;;;0.17;;
16262;SDS011;8239;48.594;8.598;2023-05-10T00:12:10;1.50;;;0.13;;
16262;SDS011;8239;48.594;8.598;2023-05-10T00:14:37;1.60;;;0.20;;
16262;SDS011;8239;48.594;8.598;2023-05-10T00:17:04;0.10;;;0.10;;
16262;SDS011;8239;48.594;8.598;2023-05-10T00:19:31;0.10;;;0.10;;
16262;SDS011;8239;48.594;8.598;2023-05-10T00:21:58;0.77;;;0.10;;
16262;SDS011;8239;48.594;8.598;2023-05-10T00:24:26;0.20;;;0.20;;
16262;SDS011;8239;48.594;8.598;2023-05-10T00:26:53;0.13;;;0.13;;
16262;SDS011;8239;48.594;8.598;2023-05-10T00:29:22;0.60;;;0.30;;
16262;SDS011;8239;48.594;8.598;2023-05-10T00:31:49;0.30;;;0.30;;
16262;SDS011;8239;48.594;8.598;2023-05-10T00:34:16;0.40;;;0.40;;
16262;SDS011;8239;48.594;8.598;2023-05-10T00:36:43;0.97;;;0.43;;
16262;SDS011;8239;48.594;8.598;2023-05-10T00:39:10;1.27;;;0.50;;
16262;SDS011;8239;48.594;8.598;2023-05-10T00:41:37;0.40;;;0.40;;
16262;SDS011;8239;48.594;8.598;2023-05-10T00:44:04;0.40;;;0.40;;
16262;SDS011;8239;48.594;8.598;2023-05-10T00:46:33;0.50;;;0.50;;
16262;SDS011;8239;48.594;8.598;2023-05-10T00:49:01;0.30;;;0.30;;
16262;SDS011;8239;48.594;8.598;2023-05-10T00:51:28;1.27;;;0.60;;
16262;SDS011;8239;48.594;8.598;2023-05-10T00:53:56;0.87;;;0.33;;
16262;SDS011;8239;48.594;8.598;2023-05-10T00:56:23;0.60;;;0.60;;
16262;SDS011;8239;48.594;8.598;2023-05-10T00:58:51;0.53;;;0.53;;
16262;SDS011;8239;48.594;8.598;2023-05-10T01:01:18;0.80;;;0.70;;
16262;SDS011;8239;48.594;8.598;2023-05-10T01:03:47;0.63;;;0.60;;
16262;SDS011;8239;48.594;8.598;2023-05-10T01:06:14;0.50;;;0.50;;
16262;SDS011;8239;48.594;8.598;2023-05-10T01:08:41;0.50;;;0.50;;
16262;SDS011;8239;48.594;8.598;2023-05-10T01:11:09;0.63;;;0.63;;
16262;SDS011;8239;48.594;8.598;2023-05-10T01:13:36;0.70;;;0.70;;
16262;SDS011;8239;48.594;8.598;2023-05-10T01:16:05;0.77;;;0.70;;
16262;SDS011;8239;48.594;8.598;2023-05-10T01:18:33;0.70;;;0.70;;
16262;SDS011;8239;48.594;8.598;2023-05-10T01:21:06;0.77;;;0.77;;
16262;SDS011;8239;48.594;8.598;2023-05-10T01:23:45;0.70;;;0.70;;
16262;SDS011;8239;48.594;8.598;2023-05-10T01:29:51;1.27;;;1.10;;
16262;SDS011;8239;48.594;8.598;2023-05-10T01:32:44;1.20;;;1.10;;
16262;SDS011;8239;48.594;8.598;2023-05-10T01:35:22;1.20;;;1.10;;
16262;SDS011;8239;48.594;8.598;2023-05-10T01:37:58;0.90;;;0.90;;
16262;SDS011;8239;48.594;8.598;2023-05-10T01:40:32;1.03;;;1.03;;
16262;SDS011;8239;48.594;8.598;2023-05-10T01:43:07;1.00;;;1.00;;
16262;SDS011;8239;48.594;8.598;2023-05-10T01:45:39;1.00;;;0.90;;
16262;SDS011;8239;48.594;8.598;2023-05-10T01:48:15;1.00;;;1.00;;
16262;SDS011;8239;48.594;8.598;2023-05-10T01:50:43;1.13;;;0.93;;
16262;SDS011;8239;48.594;8.598;2023-05-10T01:53:12;0.93;;;0.90;;
16262;SDS011;8239;48.594;8.598;2023-05-10T01:55:45;1.13;;;1.00;;
16262;SDS011;8239;48.594;8.598;2023-05-10T01:58:15;1.17;;;1.07;;
16262;SDS011;8239;48.594;8.598;2023-05-10T02:00:46;1.10;;;1.10;;
16262;SDS011;8239;48.594;8.598;2023-05-10T02:03:16;1.40;;;1.03;;
16262;SDS011;8239;48.594;8.598;2023-05-10T02:05:46;1.00;;;1.00;;
16262;SDS011;8239;48.594;8.598;2023-05-10T02:08:15;1.10;;;1.10;;
16262;SDS011;8239;48.594;8.598;2023-05-10T02:10:45;1.70;;;1.23;;
16262;SDS011;8239;48.594;8.598;2023-05-10T02:13:14;1.33;;;1.23;;
16262;SDS011;8239;48.594;8.598;2023-05-10T02:15:43;1.60;;;1.50;;
16262;SDS011;8239;48.594;8.598;2023-05-10T02:18:15;1.70;;;1.60;;
16262;SDS011;8239;48.594;8.598;2023-05-10T02:20:44;1.87;;;1.43;;
16262;SDS011;8239;48.594;8.598;2023-05-10T02:23:12;1.40;;;1.30;;
16262;SDS011;8239;48.594;8.598;2023-05-10T02:25:40;2.13;;;1.10;;
16262;SDS011;8239;48.594;8.598;2023-05-10T02:28:10;2.43;;;1.30;;
16262;SDS011;8239;48.594;8.598;2023-05-10T02:30:38;1.67;;;1.30;;
16262;SDS011;8239;48.594;8.598;2023-05-10T02:33:06;1.53;;;1.20;;
16262;SDS011;8239;48.594;8.598;2023-05-10T02:35:35;1.30;;;1.20;;
16262;SDS011;8239;48.594;8.598;2023-05-10T02:38:04;1.87;;;1.30;;
16262;SDS011;8239;48.594;8.598;2023-05-10T02:40:32;1.83;;;1.50;;
16262;SDS011;8239;48.594;8.598;2023-05-10T02:43:00;1.73;;;1.33;;
16262;SDS011;8239;48.594;8.598;2023-05-10T02:45:29;1.40;;;1.30;;
16262;SDS011;8239;48.594;8.598;2023-05-10T02:47:58;1.20;;;1.03;;
16262;SDS011;8239;48.594;8.598;2023-05-10T02:50:25;1.20;;;1.10;;
16262;SDS011;8239;48.594;8.598;2023-05-10T02:53:00;1.20;;;1.10;;
16262;SDS011;8239;48.594;8.598;2023-05-10T02:55:33;1.27;;;1.20;;
16262;SDS011;8239;48.594;8.598;2023-05-10T02:58:04;1.20;;;1.20;;
16262;SDS011;8239;48.594;8.598;2023-05-10T03:00:31;1.20;;;1.20;;
16262;SDS011;8239;48.594;8.598;2023-05-10T03:02:58;1.43;;;1.20;;
16262;SDS011;8239;48.594;8.598;2023-05-10T03:05:25;1.37;;;1.10;;
16262;SDS011;8239;48.594;8.598;2023-05-10T03:07:52;1.50;;;1.20;;
16262;SDS011;8239;48.594;8.598;2023-05-10T03:10:22;1.33;;;1.23;;
16262;SDS011;8239;48.594;8.598;2023-05-10T03:13:02;1.20;;;1.10;;
16262;SDS011;8239;48.594;8.598;2023-05-10T03:15:42;1.37;;;1.27;;
16262;SDS011;8239;48.594;8.598;2023-05-10T03:18:17;1.33;;;1.30;;
16262;SDS011;8239;48.594;8.598;2023-05-10T03:20:50;1.03;;;1.03;;
16262;SDS011;8239;48.594;8.598;2023-05-10T03:23:22;1.20;;;1.10;;
16262;SDS011;8239;48.594;8.598;2023-05-10T03:25:55;1.20;;;1.10;;
16262;SDS011;8239;48.594;8.598;2023-05-10T03:28:22;1.00;;;1.00;;
16262;SDS011;8239;48.594;8.598;2023-05-10T03:30:52;1.30;;;1.20;;
16262;SDS011;8239;48.594;8.598;2023-05-10T03:33:20;1.00;;;1.00;;
16262;SDS011;8239;48.594;8.598;2023-05-10T03:35:47;0.97;;;0.93;;
16262;SDS011;8239;48.594;8.598;2023-05-10T03:38:15;1.33;;;1.00;;
16262;SDS011;8239;48.594;8.598;2023-05-10T03:40:42;1.23;;;0.90;;
16262;SDS011;8239;48.594;8.598;2023-05-10T03:43:11;1.03;;;0.97;;
16262;SDS011;8239;48.594;8.598;2023-05-10T03:45:38;1.10;;;1.00;;
16262;SDS011;8239;48.594;8.598;2023-05-10T03:48:05;1.40;;;1.00;;
16262;SDS011;8239;48.594;8.598;2023-05-10T03:50:32;2.63;;;1.13;;
16262;SDS011;8239;48.594;8.598;2023-05-10T03:52:59;1.47;;;1.00;;
16262;SDS011;8239;48.594;8.598;2023-05-10T03:55:27;0.90;;;0.90;;
16262;SDS011;8239;48.594;8.598;2023-05-10T03:57:54;1.10;;;0.97;;
16262;SDS011;8239;48.594;8.598;2023-05-10T04:00:23;1.20;;;1.17;;
16262;SDS011;8239;48.594;8.598;2023-05-10T04:02:50;0.90;;;0.90;;
16262;SDS011;8239;48.594;8.598;2023-05-10T04:05:17;0.80;;;0.80;;
16262;SDS011;8239;48.594;8.598;2023-05-10T04:07:44;1.03;;;1.03;;
16262;SDS011;8239;48.594;8.598;2023-05-10T04:10:12;2.20;;;1.10;;
16262;SDS011;8239;48.594;8.598;2023-05-10T04:12:39;1.20;;;1.10;;
16262;SDS011;8239;48.594;8.598;2023-05-10T04:15:06;1.20;;;1.10;;
16262;SDS011;8239;48.594;8.598;2023-05-10T04:17:35;1.10;;;1.00;;
16262;SDS011;8239;48.594;8.598;2023-05-10T04:20:03;1.20;;;1.10;;
16262;SDS011;8239;48.594;8.598;2023-05-10T04:22:31;1.20;;;1.10;;
16262;SDS011;8239;48.594;8.598;2023-05-10T04:24:59;0.97;;;0.93;;
16262;SDS011;8239;48.594;8.598;2023-05-10T04:27:25;2.60;;;1.00;;
16262;SDS011;8239;48.594;8.598;2023-05-10T04:29:53;1.20;;;0.83;;
16262;SDS011;8239;48.594;8.598;2023-05-10T04:32:20;1.00;;;0.80;;
16262;SDS011;8239;48.594;8.598;2023-05-10T04:34:49;3.30;;;3.10;;
16262;SDS011;8239;48.594;8.598;2023-05-10T04:37:17;1.30;;;1.30;;
16262;SDS011;8239;48.594;8.598;2023-05-10T04:39:44;1.30;;;1.17;;
16262;SDS011;8239;48.594;8.598;2023-05-10T04:42:11;1.17;;;1.07;;
16262;SDS011;8239;48.594;8.598;2023-05-10T04:44:40;1.10;;;1.10;;
16262;SDS011;8239;48.594;8.598;2023-05-10T04:47:07;1.37;;;1.27;;
16262;SDS011;8239;48.594;8.598;2023-05-10T04:49:34;1.47;;;1.20;;
16262;SDS011;8239;48.594;8.598;2023-05-10T04:52:03;1.57;;;1.47;;
16262;SDS011;8239;48.594;8.598;2023-05-10T04:54:30;1.50;;;1.40;;
16262;SDS011;8239;48.594;8.598;2023-05-10T04:56:57;1.80;;;1.23;;
16262;SDS011;8239;48.594;8.598;2023-05-10T04:59:25;1.40;;;1.30;;
16262;SDS011;8239;48.594;8.598;2023-05-10T05:01:52;1.50;;;1.20;;
16262;SDS011;8239;48.594;8.598;2023-05-10T05:04:19;1.70;;;1.60;;
16262;SDS011;8239;48.594;8.598;2023-05-10T05:06:48;1.53;;;1.33;;
16262;SDS011;8239;48.594;8.598;2023-05-10T05:09:16;2.20;;;1.60;;
16262;SDS011;8239;48.594;8.598;2023-05-10T05:11:43;2.20;;;1.67;;
16262;SDS011;8239;48.594;8.598;2023-05-10T05:14:10;1.37;;;1.30;;
16262;SDS011;8239;48.594;8.598;2023-05-10T05:16:37;1.33;;;1.23;;
16262;SDS011;8239;48.594;8.598;2023-05-10T05:19:04;1.57;;;1.30;;
16262;SDS011;8239;48.594;8.598;2023-05-10T05:21:31;1.53;;;1.23;;
16262;SDS011;8239;48.594;8.598;2023-05-10T05:23:59;1.23;;;1.10;;
16262;SDS011;8239;48.594;8.598;2023-05-10T05:26:27;1.17;;;1.03;;
16262;SDS011;8239;48.594;8.598;2023-05-10T05:28:54;1.63;;;1.00;;
16262;SDS011;8239;48.594;8.598;2023-05-10T05:31:21;1.37;;;1.07;;
16262;SDS011;8239;48.594;8.598;2023-05-10T05:33:48;1.30;;;0.97;;
16262;SDS011;8239;48.594;8.598;2023-05-10T05:36:15;1.00;;;1.00;;
16262;SDS011;8239;48.594;8.598;2023-05-10T05:38:42;1.33;;;0.90;;
16262;SDS011;8239;48.594;8.598;2023-05-10T05:41:10;0.90;;;0.90;;
16262;SDS011;8239;48.594;8.598;2023-05-10T05:43:38;0.90;;;0.90;;
16262;SDS011;8239;48.594;8.598;2023-05-10T05:46:05;1.43;;;1.10;;
16262;SDS011;8239;48.594;8.598;2023-05-10T05:48:32;1.93;;;1.00;;
16262;SDS011;8239;48.594;8.598;2023-05-10T05:50:59;1.47;;;1.10;;
16262;SDS011;8239;48.594;8.598;2023-05-10T05:53:27;1.07;;;0.97;;
16262;SDS011;8239;48.594;8.598;2023-05-10T05:55:54;2.10;;;1.00;;
16262;SDS011;8239;48.594;8.598;2023-05-10T05:58:22;1.73;;;1.10;;
16262;SDS011;8239;48.594;8.598;2023-05-10T06:00:51;1.80;;;1.00;;
16262;SDS011;8239;48.594;8.598;2023-05-10T06:03:19;0.90;;;0.90;;
16262;SDS011;8239;48.594;8.598;2023-05-10T06:05:47;0.77;;;0.77;;
16262;SDS011;8239;48.594;8.598;2023-05-10T06:08:14;0.80;;;0.80;;
16262;SDS011;8239;48.594;8.598;2023-05-10T06:10:41;0.80;;;0.80;;
16262;SDS011;8239;48.594;8.598;2023-05-10T06:13:09;0.80;;;0.80;;
16262;SDS011;8239;48.594;8.598;2023-05-10T06:15:36;1.73;;;0.80;;
16262;SDS011;8239;48.594;8.598;2023-05-10T06:18:05;0.80;;;0.80;;
16262;SDS011;8239;48.594;8.598;2023-05-10T06:20:32;1.00;;;1.00;;
16262;SDS011;8239;48.594;8.598;2023-05-10T06:22:59;1.50;;;0.90;;
16262;SDS011;8239;48.594;8.598;2023-05-10T06:25:26;0.97;;;0.97;;
16262;SDS011;8239;48.594;8.598;2023-05-10T06:27:53;1.13;;;0.70;;
16262;SDS011;8239;48.594;8.598;2023-05-10T06:30:23;0.87;;;0.70;;
16262;SDS011;8239;48.594;8.598;2023-05-10T06:32:53;0.80;;;0.80;;
16262;SDS011;8239;48.594;8.598;2023-05-10T06:35:22;0.70;;;0.70;;
16262;SDS011;8239;48.594;8.598;2023-05-10T06:37:49;0.83;;;0.60;;
16262;SDS011;8239;48.594;8.598;2023-05-10T06:40:17;0.73;;;0.73;;
16262;SDS011;8239;48.594;8.598;2023-05-10T06:42:45;1.47;;;0.70;;
16262;SDS011;8239;48.594;8.598;2023-05-10T06:45:12;1.40;;;0.70;;
16262;SDS011;8239;48.594;8.598;2023-05-10T06:47:39;0.80;;;0.67;;
16262;SDS011;8239;48.594;8.598;2023-05-10T06:50:07;1.40;;;0.70;;
16262;SDS011;8239;48.594;8.598;2023-05-10T06:52:36;3.20;;;0.67;;
16262;SDS011;8239;48.594;8.598;2023-05-10T06:55:03;0.60;;;0.60;;
16262;SDS011;8239;48.594;8.598;2023-05-10T06:57:32;0.57;;;0.57;;
16262;SDS011;8239;48.594;8.598;2023-05-10T06:59:59;1.07;;;0.67;;
16262;SDS011;8239;48.594;8.598;2023-05-10T07:02:26;0.63;;;0.50;;
16262;SDS011;8239;48.594;8.598;2023-05-10T07:04:53;0.50;;;0.50;;
16262;SDS011;8239;48.594;8.598;2023-05-10T07:07:21;1.03;;;0.70;;
16262;SDS011;8239;48.594;8.598;2023-05-10T07:09:49;0.50;;;0.50;;
16262;SDS011;8239;48.594;8.598;2023-05-10T07:12:16;0.53;;;0.40;;
16262;SDS011;8239;48.594;8.598;2023-05-10T07:14:43;0.60;;;0.60;;
16262;SDS011;8239;48.594;8.598;2023-05-10T07:17:10;0.40;;;0.40;;
16262;SDS011;8239;48.594;8.598;2023-05-10T07:19:37;0.60;;;0.50;;
16262;SDS011;8239;48.594;8.598;2023-05-10T07:22:05;0.40;;;0.40;;
16262;SDS011;8239;48.594;8.598;2023-05-10T07:24:32;0.60;;;0.60;;
16262;SDS011;8239;48.594;8.598;2023-05-10T07:27:02;0.43;;;0.43;;
16262;SDS011;8239;48.594;8.598;2023-05-10T07:29:29;0.50;;;0.40;;
16262;SDS011;8239;48.594;8.598;2023-05-10T07:31:56;0.40;;;0.40;;
16262;SDS011;8239;48.594;8.598;2023-05-10T07:34:23;0.77;;;0.67;;
16262;SDS011;8239;48.594;8.598;2023-05-10T07:36:51;0.40;;;0.40;;
16262;SDS011;8239;48.594;8.598;2023-05-10T07:39:18;1.37;;;0.30;;
16262;SDS011;8239;48.594;8.598;2023-05-10T07:41:46;1.27;;;0.40;;
16262;SDS011;8239;48.594;8.598;2023-05-10T07:44:15;0.20;;;0.20;;
16262;SDS011;8239;48.594;8.598;2023-05-10T07:46:44;0.22;;;0.20;;
16262;SDS011;8239;48.594;8.598;2023-05-10T07:49:11;0.28;;;0.28;;
16262;SDS011;8239;48.594;8.598;2023-05-10T07:51:38;0.30;;;0.30;;
16262;SDS011;8239;48.594;8.598;2023-05-10T07:54:06;0.30;;;0.30;;
16262;SDS011;8239;48.594;8.598;2023-05-10T07:56:33;0.38;;;0.30;;
16262;SDS011;8239;48.594;8.598;2023-05-10T07:59:00;0.15;;;0.15;;
16262;SDS011;8239;48.594;8.598;2023-05-10T08:01:31;0.57;;;0.30;;
16262;SDS011;8239;48.594;8.598;2023-05-10T08:03:59;0.30;;;0.30;;
16262;SDS011;8239;48.594;8.598;2023-05-10T08:06:27;0.20;;;0.20;;
16262;SDS011;8239;48.594;8.598;2023-05-10T08:08:55;0.28;;;0.28;;
16262;SDS011;8239;48.594;8.598;2023-05-10T08:11:22;0.40;;;0.40;;
16262;SDS011;8239;48.594;8.598;2023-05-10T08:13:50;0.30;;;0.30;;
16262;SDS011;8239;48.594;8.598;2023-05-10T08:16:17;0.73;;;0.20;;
16262;SDS011;8239;48.594;8.598;2023-05-10T08:18:46;0.40;;;0.38;;
16262;SDS011;8239;48.594;8.598;2023-05-10T08:21:14;0.45;;;0.38;;
16262;SDS011;8239;48.594;8.598;2023-05-10T08:23:41;0.38;;;0.20;;
16262;SDS011;8239;48.594;8.598;2023-05-10T08:26:09;0.60;;;0.30;;
16262;SDS011;8239;48.594;8.598;2023-05-10T08:28:36;0.40;;;0.40;;
16262;SDS011;8239;48.594;8.598;2023-05-10T08:31:03;0.28;;;0.20;;
16262;SDS011;8239;48.594;8.598;2023-05-10T08:33:30;0.45;;;0.20;;
16262;SDS011;8239;48.594;8.598;2023-05-10T08:35:59;0.20;;;0.20;;
16262;SDS011;8239;48.594;8.598;2023-05-10T08:38:26;0.10;;;0.10;;
16262;SDS011;8239;48.594;8.598;2023-05-10T08:40:53;0.20;;;0.20;;
16262;SDS011;8239;48.594;8.598;2023-05-10T08:43:24;0.17;;;0.17;;
16262;SDS011;8239;48.594;8.598;2023-05-10T08:45:54;0.38;;;0.30;;
16262;SDS011;8239;48.594;8.598;2023-05-10T08:48:22;0.75;;;0.40;;
16262;SDS011;8239;48.594;8.598;2023-05-10T08:50:52;0.15;;;0.15;;
16262;SDS011;8239;48.594;8.598;2023-05-10T08:53:22;0.20;;;0.20;;
16262;SDS011;8239;48.594;8.598;2023-05-10T08:55:52;0.32;;;0.30;;
16262;SDS011;8239;48.594;8.598;2023-05-10T08:58:19;0.30;;;0.30;;
16262;SDS011;8239;48.594;8.598;2023-05-10T09:00:48;0.30;;;0.30;;
16262;SDS011;8239;48.594;8.598;2023-05-10T09:03:15;0.30;;;0.30;;
16262;SDS011;8239;48.594;8.598;2023-05-10T09:05:44;0.75;;;0.40;;
16262;SDS011;8239;48.594;8.598;2023-05-10T09:08:11;1.08;;;0.40;;
16262;SDS011;8239;48.594;8.598;2023-05-10T09:10:42;0.30;;;0.30;;
16262;SDS011;8239;48.594;8.598;2023-05-10T09:13:12;0.20;;;0.20;;
16262;SDS011;8239;48.594;8.598;2023-05-10T09:15:41;0.30;;;0.30;;
16262;SDS011;8239;48.594;8.598;2023-05-10T09:18:09;0.40;;;0.20;;
16262;SDS011;8239;48.594;8.598;2023-05-10T09:20:36;1.13;;;0.30;;
16262;SDS011;8239;48.594;8.598;2023-05-10T09:23:03;0.30;;;0.30;;
16262;SDS011;8239;48.594;8.598;2023-05-10T09:25:30;0.52;;;0.30;;
16262;SDS011;8239;48.594;8.598;2023-05-10T09:28:00;0.80;;;0.30;;
16262;SDS011;8239;48.594;8.598;2023-05-10T09:30:27;0.30;;;0.30;;
16262;SDS011;8239;48.594;8.598;2023-05-10T09:32:56;0.30;;;0.30;;
16262;SDS011;8239;48.594;8.598;2023-05-10T09:35:24;0.40;;;0.40;;
16262;SDS011;8239;48.594;8.598;2023-05-10T09:37:52;0.68;;;0.40;;
16262;SDS011;8239;48.594;8.598;2023-05-10T09:40:21;1.05;;;0.40;;
16262;SDS011;8239;48.594;8.598;2023-05-10T09:42:53;0.47;;;0.47;;
16262;SDS011;8239;48.594;8.598;2023-05-10T09:45:25;0.30;;;0.30;;
16262;SDS011;8239;48.594;8.598;2023-05-10T09:47:58;0.40;;;0.40;;
16262;SDS011;8239;48.594;8.598;2023-05-10T09:50:27;0.50;;;0.50;;
16262;SDS011;8239;48.594;8.598;2023-05-10T09:52:55;0.50;;;0.50;;
16262;SDS011;8239;48.594;8.598;2023-05-10T09:55:37;0.70;;;0.70;;
16262;SDS011;8239;48.594;8.598;2023-05-10T09:58:05;0.30;;;0.30;;
16262;SDS011;8239;48.594;8.598;2023-05-10T10:00:37;0.30;;;0.30;;
16262;SDS011;8239;48.594;8.598;2023-05-10T10:03:12;0.82;;;0.30;;
16262;SDS011;8239;48.594;8.598;2023-05-10T10:05:40;0.50;;;0.30;;
16262;SDS011;8239;48.594;8.598;2023-05-10T10:08:08;0.80;;;0.30;;
16262;SDS011;8239;48.594;8.598;2023-05-10T10:10:36;0.80;;;0.20;;
16262;SDS011;8239;48.594;8.598;2023-05-10T10:13:05;0.63;;;0.43;;
16262;SDS011;8239;48.594;8.598;2023-05-10T10:15:33;0.40;;;0.40;;
16262;SDS011;8239;48.594;8.598;2023-05-10T10:18:05;1.43;;;0.37;;
16262;SDS011;8239;48.594;8.598;2023-05-10T10:20:32;0.30;;;0.30;;
16262;SDS011;8239;48.594;8.598;2023-05-10T10:22:59;0.40;;;0.40;;
16262;SDS011;8239;48.594;8.598;2023-05-10T10:25:26;0.30;;;0.30;;
16262;SDS011;8239;48.594;8.598;2023-05-10T10:28:00;0.60;;;0.30;;
16262;SDS011;8239;48.594;8.598;2023-05-10T10:30:37;0.43;;;0.30;;
16262;SDS011;8239;48.594;8.598;2023-05-10T10:33:18;0.50;;;0.50;;
16262;SDS011;8239;48.594;8.598;2023-05-10T10:36:00;0.70;;;0.50;;
16262;SDS011;8239;48.594;8.598;2023-05-10T10:38:35;0.43;;;0.43;;
16262;SDS011;8239;48.594;8.598;2023-05-10T10:41:09;0.50;;;0.40;;
16262;SDS011;8239;48.594;8.598;2023-05-10T10:43:37;0.85;;;0.40;;
16262;SDS011;8239;48.594;8.598;2023-05-10T10:46:09;1.15;;;0.50;;
16262;SDS011;8239;48.594;8.598;2023-05-10T10:48:39;0.40;;;0.40;;
16262;SDS011;8239;48.594;8.598;2023-05-10T10:51:06;2.00;;;0.60;;
16262;SDS011;8239;48.594;8.598;2023-05-10T10:53:33;0.52;;;0.30;;
16262;SDS011;8239;48.594;8.598;2023-05-10T10:56:06;1.00;;;0.50;;
16262;SDS011;8239;48.594;8.598;2023-05-10T10:58:35;1.25;;;0.47;;
16262;SDS011;8239;48.594;8.598;2023-05-10T11:01:09;1.08;;;0.45;;
16262;SDS011;8239;48.594;8.598;2023-05-10T11:03:39;0.50;;;0.50;;
16262;SDS011;8239;48.594;8.598;2023-05-10T11:06:06;1.10;;;0.60;;
16262;SDS011;8239;48.594;8.598;2023-05-10T11:08:34;0.88;;;0.52;;
16262;SDS011;8239;48.594;8.598;2023-05-10T11:11:08;0.60;;;0.60;;
16262;SDS011;8239;48.594;8.598;2023-05-10T11:13:39;1.05;;;0.52;;
16262;SDS011;8239;48.594;8.598;2023-05-10T11:16:13;1.05;;;0.50;;
16262;SDS011;8239;48.594;8.598;2023-05-10T11:18:53;1.85;;;0.50;;
16262;SDS011;8239;48.594;8.598;2023-05-10T11:21:23;1.20;;;0.70;;
16262;SDS011;8239;48.594;8.598;2023-05-10T11:23:51;1.27;;;0.60;;
16262;SDS011;8239;48.594;8.598;2023-05-10T11:26:21;1.98;;;0.68;;
16262;SDS011;8239;48.594;8.598;2023-05-10T11:28:51;1.75;;;0.70;;
16262;SDS011;8239;48.594;8.598;2023-05-10T11:31:20;0.55;;;0.55;;
16262;SDS011;8239;48.594;8.598;2023-05-10T11:33:49;1.20;;;0.65;;
16262;SDS011;8239;48.594;8.598;2023-05-10T11:36:19;1.85;;;0.82;;
16262;SDS011;8239;48.594;8.598;2023-05-10T11:38:47;1.80;;;0.82;;
16262;SDS011;8239;48.594;8.598;2023-05-10T11:41:15;1.85;;;0.68;;
16262;SDS011;8239;48.594;8.598;2023-05-10T11:43:45;1.65;;;0.90;;
16262;SDS011;8239;48.594;8.598;2023-05-10T11:46:13;1.08;;;0.80;;
16262;SDS011;8239;48.594;8.598;2023-05-10T11:48:42;2.17;;;0.75;;
16262;SDS011;8239;48.594;8.598;2023-05-10T11:51:09;0.73;;;0.70;;
16262;SDS011;8239;48.594;8.598;2023-05-10T11:53:38;1.52;;;0.93;;
16262;SDS011;8239;48.594;8.598;2023-05-10T11:56:05;1.13;;;0.73;;
16262;SDS011;8239;48.594;8.598;2023-05-10T11:58:34;1.35;;;0.55;;
16262;SDS011;8239;48.594;8.598;2023-05-10T12:01:02;1.95;;;0.70;;
16262;SDS011;8239;48.594;8.598;2023-05-10T12:03:31;1.52;;;0.70;;
16262;SDS011;8239;48.594;8.598;2023-05-10T12:05:59;1.17;;;0.80;;
16262;SDS011;8239;48.594;8.598;2023-05-10T12:08:30;2.03;;;1.00;;
16262;SDS011;8239;48.594;8.598;2023-05-10T12:11:05;1.30;;;0.70;;
16262;SDS011;8239;48.594;8.598;2023-05-10T12:13:37;2.20;;;1.00;;
16262;SDS011;8239;48.594;8.598;2023-05-10T12:18:50;1.53;;;0.80;;
16262;SDS011;8239;48.594;8.598;2023-05-10T12:21:18;1.27;;;0.90;;
16262;SDS011;8239;48.594;8.598;2023-05-10T12:23:46;1.50;;;1.00;;
16262;SDS011;8239;48.594;8.598;2023-05-10T12:26:17;1.67;;;0.90;;
16262;SDS011;8239;48.594;8.598;2023-05-10T12:28:45;1.25;;;0.80;;
16262;SDS011;8239;48.594;8.598;2023-05-10T12:31:12;0.95;;;0.80;;
16262;SDS011;8239;48.594;8.598;2023-05-10T12:33:39;1.15;;;0.75;;
16262;SDS011;8239;48.594;8.598;2023-05-10T12:36:08;1.42;;;0.75;;
16262;SDS011;8239;48.594;8.598;2023-05-10T12:38:36;0.80;;;0.77;;
16262;SDS011;8239;48.594;8.598;2023-05-10T12:41:04;0.93;;;0.77;;
16262;SDS011;8239;48.594;8.598;2023-05-10T12:43:34;1.15;;;0.70;;
16262;SDS011;8239;48.594;8.598;2023-05-10T12:46:05;1.77;;;0.80;;
16262;SDS011;8239;48.594;8.598;2023-05-10T12:48:33;1.25;;;0.75;;
16262;SDS011;8239;48.594;8.598;2023-05-10T12:51:01;2.35;;;1.00;;
16262;SDS011;8239;48.594;8.598;2023-05-10T12:53:28;1.58;;;0.77;;
16262;SDS011;8239;48.594;8.598;2023-05-10T12:55:55;0.70;;;0.70;;
16262;SDS011;8239;48.594;8.598;2023-05-10T12:58:22;2.33;;;0.70;;
16262;SDS011;8239;48.594;8.598;2023-05-10T13:00:51;1.27;;;0.70;;
16262;SDS011;8239;48.594;8.598;2023-05-10T13:03:19;2.88;;;0.68;;
16262;SDS011;8239;48.594;8.598;2023-05-10T13:05:46;1.80;;;0.75;;
16262;SDS011;8239;48.594;8.598;2023-05-10T13:08:13;1.13;;;0.70;;
16262;SDS011;8239;48.594;8.598;2023-05-10T13:10:40;0.70;;;0.70;;
16262;SDS011;8239;48.594;8.598;2023-05-10T13:13:07;2.55;;;0.80;;
16262;SDS011;8239;48.594;8.598;2023-05-10T13:15:34;2.10;;;0.60;;
16262;SDS011;8239;48.594;8.598;2023-05-10T13:18:03;2.38;;;0.70;;
16262;SDS011;8239;48.594;8.598;2023-05-10T13:20:30;0.82;;;0.60;;
16262;SDS011;8239;48.594;8.598;2023-05-10T13:22:57;0.60;;;0.50;;
16262;SDS011;8239;48.594;8.598;2023-05-10T13:25:24;1.45;;;0.50;;
16262;SDS011;8239;48.594;8.598;2023-05-10T13:27:51;1.02;;;0.60;;
16262;SDS011;8239;48.594;8.598;2023-05-10T13:30:18;1.38;;;0.70;;
16262;SDS011;8239;48.594;8.598;2023-05-10T13:32:45;2.00;;;0.68;;
16262;SDS011;8239;48.594;8.598;2023-05-10T13:35:14;0.60;;;0.60;;
16262;SDS011;8239;48.594;8.598;2023-05-10T13:37:41;2.05;;;0.50;;
16262;SDS011;8239;48.594;8.598;2023-05-10T13:40:08;0.70;;;0.60;;
16262;SDS011;8239;48.594;8.598;2023-05-10T13:42:35;1.63;;;0.60;;
16262;SDS011;8239;48.594;8.598;2023-05-10T13:45:03;0.60;;;0.60;;
16262;SDS011;8239;48.594;8.598;2023-05-10T13:47:30;1.17;;;0.47;;
16262;SDS011;8239;48.594;8.598;2023-05-10T13:49:57;1.05;;;0.50;;
16262;SDS011;8239;48.594;8.598;2023-05-10T13:52:27;2.50;;;1.00;;
16262;SDS011;8239;48.594;8.598;2023-05-10T13:54:54;1.30;;;0.50;;
16262;SDS011;8239;48.594;8.598;2023-05-10T13:57:22;0.73;;;0.52;;
16262;SDS011;8239;48.594;8.598;2023-05-10T13:59:49;0.70;;;0.60;;
16262;SDS011;8239;48.594;8.598;2023-05-10T14:02:16;0.57;;;0.57;;
16262;SDS011;8239;48.594;8.598;2023-05-10T14:04:43;0.85;;;0.60;;
16262;SDS011;8239;48.594;8.598;2023-05-10T14:07:11;1.08;;;0.50;;
16262;SDS011;8239;48.594;8.598;2023-05-10T14:09:39;1.60;;;0.60;;
16262;SDS011;8239;48.594;8.598;2023-05-10T14:12:06;1.48;;;0.77;;
16262;SDS011;8239;48.594;8.598;2023-05-10T14:14:33;6.72;;;1.00;;
16262;SDS011;8239;48.594;8.598;2023-05-10T14:17:00;1.45;;;0.50;;
16262;SDS011;8239;48.594;8.598;2023-05-10T14:19:27;1.23;;;0.70;;
16262;SDS011;8239;48.594;8.598;2023-05-10T14:21:57;0.65;;;0.52;;
16262;SDS011;8239;48.594;8.598;2023-05-10T14:24:24;0.65;;;0.40;;
16262;SDS011;8239;48.594;8.598;2023-05-10T14:26:52;0.90;;;0.57;;
16262;SDS011;8239;48.594;8.598;2023-05-10T14:29:19;0.50;;;0.50;;
16262;SDS011;8239;48.594;8.598;2023-05-10T14:31:47;0.55;;;0.43;;
16262;SDS011;8239;48.594;8.598;2023-05-10T14:34:14;1.00;;;0.50;;
16262;SDS011;8239;48.594;8.598;2023-05-10T14:36:41;0.45;;;0.40;;
16262;SDS011;8239;48.594;8.598;2023-05-10T14:39:08;0.40;;;0.40;;
16262;SDS011;8239;48.594;8.598;2023-05-10T14:41:37;1.67;;;0.50;;
16262;SDS011;8239;48.594;8.598;2023-05-10T14:44:07;1.55;;;0.70;;
16262;SDS011;8239;48.594;8.598;2023-05-10T14:46:35;2.80;;;1.38;;
16262;SDS011;8239;48.594;8.598;2023-05-10T14:49:02;0.85;;;0.52;;
16262;SDS011;8239;48.594;8.598;2023-05-10T14:51:29;0.47;;;0.47;;
16262;SDS011;8239;48.594;8.598;2023-05-10T14:53:56;2.70;;;0.95;;
16262;SDS011;8239;48.594;8.598;2023-05-10T14:56:23;1.75;;;0.50;;
16262;SDS011;8239;48.594;8.598;2023-05-10T14:58:50;1.75;;;0.40;;
16262;SDS011;8239;48.594;8.598;2023-05-10T15:01:23;0.88;;;0.43;;
16262;SDS011;8239;48.594;8.598;2023-05-10T15:03:57;0.40;;;0.40;;
16262;SDS011;8239;48.594;8.598;2023-05-10T15:06:30;0.35;;;0.35;;
16262;SDS011;8239;48.594;8.598;2023-05-10T15:08:57;1.15;;;0.40;;
16262;SDS011;8239;48.594;8.598;2023-05-10T15:11:24;0.40;;;0.40;;
16262;SDS011;8239;48.594;8.598;2023-05-10T15:13:51;0.50;;;0.40;;
16262;SDS011;8239;48.594;8.598;2023-05-10T15:16:20;0.43;;;0.30;;